Time;durP1;ratioP1;P1;durP2;ratioP2;P2;SDS_P1;SDS_P2;PMS_P1;PMS_P2;Temp;Humidity;BMP_temperature;BMP_pressure;BME280_temperature;BME280_humidity;BME280_pressure;Samples;Min_cycle;Max_cycle;Signal;HPM_P1;HPM_P2
2023/01/25 00:06:00;;;;;;;15.38;8.82;;;1.50;99.90;;;;;;20552426;28;20065;-46
2023/01/25 00:16:02;;;;;;;16.63;8.57;;;1.40;82.50;;;;;;20559496;28;20128;-46
2023/01/25 00:26:03;;;;;;;16.42;8.35;;;1.20;99.00;;;;;;20558502;28;20182;-46
2023/01/25 00:36:37;;;;;;;22.75;7.57;;;1.30;99.90;;;;;;20555974;28;20332;-46
2023/01/25 00:46:38;;;;;;;14.63;8.13;;;1.50;99.90;;;;;;20506616;28;20962;-47
2023/01/25 00:56:39;;;;;;;10.63;5.50;;;1.40;99.90;;;;;;20544030;28;20462;-45
2023/01/25 01:06:41;;;;;;;16.05;7.78;;;1.40;99.90;;;;;;20551989;28;20069;-46
2023/01/25 01:16:42;;;;;;;17.27;7.82;;;1.40;99.90;;;;;;20556907;28;20090;-46
2023/01/25 01:26:43;;;;;;;13.75;7.35;;;1.40;99.90;;;;;;20560900;28;20050;-46
2023/01/25 01:36:44;;;;;;;16.13;8.48;;;1.50;99.90;;;;;;20548193;28;20047;-46
2023/01/25 01:46:53;;;;;;;13.25;7.35;;;1.40;99.90;;;;;;20569279;28;20046;-46
2023/01/25 01:57:03;;;;;;;18.00;7.57;;;1.50;99.90;;;;;;20554437;28;21687;-46
2023/01/25 02:07:21;;;;;;;15.38;9.05;;;1.30;99.90;;;;;;20561556;28;20097;-46
2023/01/25 02:17:41;;;;;;;15.73;8.93;;;1.40;99.90;;;;;;20553577;28;20873;-46
2023/01/25 02:27:49;;;;;;;19.45;11.27;;;1.40;99.90;;;;;;20543524;28;21038;-46
2023/01/25 02:37:50;;;;;;;10.45;6.82;;;1.50;99.90;;;;;;20544545;28;21485;-46
2023/01/25 02:47:51;;;;;;;13.82;7.95;;;1.30;99.90;;;;;;20544732;28;20074;-46
2023/01/25 02:57:52;;;;;;;17.13;8.23;;;1.40;99.90;;;;;;20548184;28;20046;-46
2023/01/25 03:07:53;;;;;;;13.52;8.02;;;1.20;99.90;;;;;;20545878;28;20042;-46
2023/01/25 03:17:55;;;;;;;19.98;9.32;;;1.20;99.90;;;;;;20552457;28;20038;-46
2023/01/25 03:27:56;;;;;;;13.30;8.00;;;1.30;99.90;;;;;;20563440;28;20073;-46
2023/01/25 03:37:57;;;;;;;19.13;10.40;;;1.20;99.90;;;;;;20560556;28;20046;-46
2023/01/25 03:47:58;;;;;;;15.48;9.27;;;1.10;99.90;;;;;;20562943;28;20046;-46
2023/01/25 03:57:59;;;;;;;22.58;10.25;;;0.90;99.90;;;;;;20557657;28;20034;-46
2023/01/25 04:08:00;;;;;;;20.70;11.52;;;0.90;99.90;;;;;;20562174;28;20070;-46
2023/01/25 04:18:01;;;;;;;19.35;9.20;;;1.10;97.30;;;;;;20568276;28;20045;-46
2023/01/25 04:28:03;;;;;;;20.45;10.32;;;1.00;99.90;;;;;;20556568;28;20081;-46
2023/01/25 04:38:04;;;;;;;22.65;11.63;;;1.10;99.90;;;;;;20559014;28;20101;-46
2023/01/25 04:48:08;;;;;;;17.13;10.05;;;1.00;99.90;;;;;;20557898;28;20446;-46
2023/01/25 04:58:09;;;;;;;17.85;11.13;;;1.00;99.50;;;;;;20561528;28;20070;-46
2023/01/25 05:08:10;;;;;;;25.55;12.43;;;0.90;99.90;;;;;;20554748;28;20046;-46
2023/01/25 05:18:11;;;;;;;13.70;7.68;;;0.70;99.90;;;;;;20556394;28;20085;-46
2023/01/25 05:28:12;;;;;;;19.10;9.38;;;0.70;99.90;;;;;;20558897;28;20104;-46
2023/01/25 05:38:13;;;;;;;18.33;9.10;;;0.70;99.90;;;;;;20528368;28;20051;-46
2023/01/25 05:48:14;;;;;;;17.13;9.85;;;0.50;99.90;;;;;;20548359;28;20043;-46
2023/01/25 05:58:15;;;;;;;21.42;12.70;;;0.40;99.90;;;;;;20552354;28;20034;-46
2023/01/25 06:08:16;;;;;;;20.88;11.75;;;0.50;99.90;;;;;;20561332;28;20085;-46
2023/01/25 06:18:17;;;;;;;26.15;11.80;;;0.60;99.90;;;;;;20558457;28;20046;-46
2023/01/25 06:28:18;;;;;;;23.52;13.50;;;0.70;99.90;;;;;;20551468;28;21136;-46
2023/01/25 06:38:19;;;;;;;16.88;11.23;;;0.50;96.20;;;;;;20554964;28;20512;-46
2023/01/25 06:48:20;;;;;;;15.25;9.43;;;0.40;99.90;;;;;;20559367;28;20482;-46
2023/01/25 06:58:21;;;;;;;28.73;11.55;;;0.50;99.90;;;;;;20568414;28;20529;-46
2023/01/25 07:08:22;;;;;;;25.35;12.25;;;0.40;99.90;;;;;;20570504;28;20156;-46
2023/01/25 07:18:24;;;;;;;19.67;11.18;;;0.40;99.90;;;;;;20587514;28;20038;-46
2023/01/25 07:28:26;;;;;;;25.95;12.20;;;0.50;99.90;;;;;;20571674;28;20059;-46
2023/01/25 07:38:27;;;;;;;28.17;14.40;;;0.40;99.90;;;;;;20563223;28;20466;-46
2023/01/25 07:48:28;;;;;;;31.67;14.77;;;0.50;99.90;;;;;;20544931;28;20129;-46
2023/01/25 07:58:29;;;;;;;21.00;12.40;;;0.40;99.90;;;;;;20536641;28;20089;-46
2023/01/25 08:08:35;;;;;;;25.25;12.98;;;0.50;99.90;;;;;;20560832;28;20038;-46
2023/01/25 08:18:36;;;;;;;22.77;13.53;;;0.50;99.90;;;;;;20557326;28;20081;-46
2023/01/25 08:28:37;;;;;;;32.28;15.32;;;0.30;99.90;;;;;;20549590;28;20045;-46
2023/01/25 08:38:38;;;;;;;30.40;14.98;;;0.50;99.90;;;;;;20571249;28;20050;-46
2023/01/25 08:48:39;;;;;;;26.63;14.50;;;0.60;99.90;;;;;;20587012;28;20046;-46
2023/01/25 08:58:43;;;;;;;23.83;13.80;;;0.40;99.90;;;;;;20576658;28;20042;-46
2023/01/25 09:08:45;;;;;;;26.77;14.00;;;0.40;99.90;;;;;;20560819;28;20529;-46
2023/01/25 09:18:46;;;;;;;25.83;12.35;;;0.40;99.90;;;;;;20567604;28;20046;-46
2023/01/25 09:28:50;;;;;;;28.27;12.80;;;0.40;99.90;;;;;;20560346;28;20046;-46
2023/01/25 09:38:51;;;;;;;28.15;13.93;;;0.50;99.90;;;;;;20568053;28;20899;-46
2023/01/25 09:49:18;;;;;;;25.60;13.88;;;0.60;99.90;;;;;;20721140;28;20620;-47
2023/01/25 09:59:25;;;;;;;27.25;13.23;;;0.60;99.90;;;;;;20635046;28;20873;-47
2023/01/25 10:09:33;;;;;;;19.85;11.52;;;0.50;99.90;;;;;;20631827;28;20120;-46
2023/01/25 10:19:42;;;;;;;24.42;12.45;;;0.40;99.90;;;;;;20656381;28;20034;-46
2023/01/25 10:29:44;;;;;;;29.17;13.48;;;0.40;99.90;;;;;;20639539;28;20089;-46
2023/01/25 10:40:00;;;;;;;30.23;14.52;;;0.30;99.90;;;;;;20675043;28;20037;-46
2023/01/25 10:50:02;;;;;;;29.40;14.83;;;0.30;99.90;;;;;;20733253;28;20821;-46
2023/01/25 11:00:09;;;;;;;24.88;13.85;;;0.40;99.90;;;;;;20674732;28;20050;-46
2023/01/25 11:10:31;;;;;;;29.30;15.82;;;0.50;99.90;;;;;;20673118;28;20045;-46
2023/01/25 11:20:32;;;;;;;29.80;13.85;;;0.30;99.90;;;;;;20673536;28;21841;-46
2023/01/25 11:30:33;;;;;;;26.63;13.82;;;0.20;99.90;;;;;;20675839;28;20037;-46
2023/01/25 11:40:47;;;;;;;27.95;15.43;;;0.30;99.90;;;;;;20678301;28;20050;-46
2023/01/25 11:51:02;;;;;;;26.40;17.33;;;0.30;99.90;;;;;;20674915;28;20782;-46
2023/01/25 12:01:46;;;;;;;22.13;12.38;;;0.30;99.90;;;;;;20683874;28;20097;-46
2023/01/25 12:12:07;;;;;;;35.70;13.77;;;0.30;99.90;;;;;;20666435;28;20906;-46
2023/01/25 12:22:17;;;;;;;27.35;14.23;;;0.20;99.90;;;;;;20668464;28;20290;-46
2023/01/25 12:32:25;;;;;;;24.20;13.27;;;0.10;99.90;;;;;;20663809;28;20100;-46
2023/01/25 12:42:36;;;;;;;27.27;15.95;;;0.00;99.90;;;;;;20669627;28;20836;-46
2023/01/25 12:52:44;;;;;;;30.00;15.13;;;0.00;99.90;;;;;;20675882;28;20100;-46
2023/01/25 13:03:00;;;;;;;41.72;19.63;;;0.20;99.90;;;;;;20663704;28;20042;-46
2023/01/25 13:13:16;;;;;;;39.53;17.87;;;0.10;99.90;;;;;;20640438;28;20729;-46
2023/01/25 13:23:45;;;;;;;32.42;19.27;;;0.10;99.90;;;;;;20634256;28;20097;-47
2023/01/25 13:33:46;;;;;;;37.08;18.73;;;0.20;99.90;;;;;;20655206;28;20901;-46
2023/01/25 13:44:18;;;;;;;39.83;18.88;;;0.30;99.90;;;;;;20647261;28;20382;-46
2023/01/25 13:54:19;;;;;;;38.92;20.35;;;0.30;99.90;;;;;;20626065;28;20640;-47
2023/01/25 14:04:20;;;;;;;39.85;16.98;;;0.30;99.90;;;;;;20634378;28;20425;-47
2023/01/25 14:14:34;;;;;;;32.53;18.70;;;0.30;99.90;;;;;;20645360;28;20386;-47
2023/01/25 14:24:35;;;;;;;35.50;19.60;;;0.20;99.90;;;;;;20641111;28;20049;-46
2023/01/25 14:34:36;;;;;;;36.78;19.75;;;0.20;99.90;;;;;;20652631;28;20039;-46
2023/01/25 14:44:37;;;;;;;41.08;21.25;;;0.20;99.90;;;;;;20658295;28;20046;-46
2023/01/25 14:54:44;;;;;;;34.45;18.25;;;0.20;99.90;;;;;;20665487;28;20049;-46
2023/01/25 15:04:59;;;;;;;42.63;21.77;;;0.00;99.90;;;;;;20660077;28;20457;-46
2023/01/25 15:15:01;;;;;;;40.88;19.13;;;0.10;99.90;;;;;;20674840;28;20922;-46
2023/01/25 15:25:04;;;;;;;34.75;21.83;;;0.00;99.90;;;;;;20671397;28;20088;-47
2023/01/25 15:35:19;;;;;;;38.78;18.83;;;0.00;99.90;;;;;;20674833;28;20033;-47
2023/01/25 15:45:20;;;;;;;37.25;20.13;;;0.10;99.90;;;;;;20673742;28;20194;-46
2023/01/25 15:55:22;;;;;;;32.10;21.83;;;0.10;99.90;;;;;;20674162;28;20049;-47
2023/01/25 16:05:23;;;;;;;34.10;18.63;;;0.10;99.90;;;;;;20659841;28;20108;-46
2023/01/25 16:15:24;;;;;;;37.20;18.45;;;0.20;99.90;;;;;;20660265;28;20042;-47
2023/01/25 16:25:25;;;;;;;24.20;16.52;;;0.30;99.90;;;;;;20652636;28;20057;-47
2023/01/25 16:35:26;;;;;;;31.75;17.02;;;0.40;99.90;;;;;;20652711;28;20047;-46
2023/01/25 16:45:27;;;;;;;29.88;16.33;;;0.30;99.90;;;;;;20644395;28;20398;-46
2023/01/25 16:55:28;;;;;;;51.22;21.85;;;0.40;99.90;;;;;;20649323;28;20042;-46
2023/01/25 17:05:32;;;;;;;41.53;20.42;;;0.20;99.90;;;;;;20638686;28;20046;-48
2023/01/25 17:15:33;;;;;;;44.83;20.10;;;0.10;99.90;;;;;;20641586;28;20539;-48
2023/01/25 17:25:38;;;;;;;32.85;20.45;;;0.00;99.90;;;;;;20633958;28;20053;-48
2023/01/25 17:35:39;;;;;;;44.10;21.85;;;0.10;99.90;;;;;;20655185;28;20034;-48
2023/01/25 17:45:40;;;;;;;47.63;23.20;;;0.00;99.90;;;;;;20658113;28;20552;-48
2023/01/25 17:55:41;;;;;;;48.55;24.08;;;0.00;99.90;;;;;;20656001;28;20397;-46
2023/01/25 18:05:44;;;;;;;51.60;24.38;;;0.10;99.90;;;;;;20664820;28;20276;-46
2023/01/25 18:15:54;;;;;;;48.25;25.00;;;0.10;99.90;;;;;;20664536;28;20576;-46
2023/01/25 18:25:55;;;;;;;50.35;26.50;;;0.10;99.90;;;;;;20655543;28;20841;-47
2023/01/25 18:35:58;;;;;;;50.92;27.35;;;0.10;99.90;;;;;;20653390;28;20065;-47
2023/01/25 18:45:59;;;;;;;59.58;28.33;;;0.10;99.90;;;;;;20666016;28;20474;-47
2023/01/25 18:56:11;;;;;;;69.07;29.15;;;0.10;99.90;;;;;;20648746;28;20500;-47
2023/01/25 19:06:13;;;;;;;65.72;29.35;;;0.10;99.90;;;;;;20657064;28;20041;-47
2023/01/25 19:16:16;;;;;;;63.83;27.70;;;0.20;99.90;;;;;;20656925;28;20069;-47
2023/01/25 19:26:20;;;;;;;52.08;26.70;;;0.30;99.90;;;;;;20657743;28;20042;-47
2023/01/25 19:36:22;;;;;;;60.78;29.50;;;0.30;99.90;;;;;;20648926;28;21835;-47
2023/01/25 19:46:26;;;;;;;49.75;26.33;;;0.30;99.90;;;;;;20649103;28;20105;-47
2023/01/25 19:56:29;;;;;;;61.35;31.98;;;0.30;99.90;;;;;;20651573;28;20068;-47
2023/01/25 20:06:31;;;;;;;49.63;25.52;;;0.30;99.90;;;;;;20640906;28;20104;-46
2023/01/25 20:16:33;;;;;;;53.83;27.00;;;0.40;99.90;;;;;;20648536;28;20089;-46
2023/01/25 20:26:37;;;;;;;56.88;27.48;;;0.40;99.90;;;;;;20648786;28;20153;-47
2023/01/25 20:36:39;;;;;;;59.35;25.80;;;0.40;99.90;;;;;;20650488;28;20050;-46
2023/01/25 20:46:41;;;;;;;41.17;23.38;;;0.30;99.90;;;;;;20642177;28;20046;-46
2023/01/25 20:56:46;;;;;;;53.65;24.52;;;0.30;99.90;;;;;;20652203;28;20505;-47
2023/01/25 21:06:47;;;;;;;62.20;28.17;;;0.30;99.90;;;;;;20632607;28;20464;-47
2023/01/25 21:16:48;;;;;;;72.30;26.20;;;0.30;99.90;;;;;;20638236;28;20390;-47
2023/01/25 21:26:49;;;;;;;55.45;28.23;;;0.30;99.90;;;;;;20637507;28;20541;-47
2023/01/25 21:36:50;;;;;;;62.83;30.02;;;0.40;99.90;;;;;;20645638;28;20228;-47
2023/01/25 21:46:51;;;;;;;64.35;26.80;;;0.40;99.90;;;;;;20635210;28;20105;-47
2023/01/25 21:56:55;;;;;;;53.80;25.35;;;0.30;99.90;;;;;;20636978;28;20072;-46
2023/01/25 22:06:56;;;;;;;44.22;23.85;;;0.20;99.90;;;;;;20643342;28;20452;-46
2023/01/25 22:16:57;;;;;;;49.10;24.50;;;0.20;99.90;;;;;;20643960;28;20045;-46
2023/01/25 22:27:07;;;;;;;45.22;24.23;;;0.30;99.90;;;;;;20633225;28;20104;-46
2023/01/25 22:37:10;;;;;;;65.20;28.77;;;0.20;99.90;;;;;;20633778;28;20046;-46
2023/01/25 22:47:11;;;;;;;59.33;28.60;;;0.20;99.90;;;;;;20634790;28;20058;-46
2023/01/25 22:57:12;;;;;;;49.42;24.75;;;0.30;99.90;;;;;;20655678;28;20045;-46
2023/01/25 23:07:17;;;;;;;56.03;26.83;;;0.10;99.90;;;;;;20671550;28;20056;-46
2023/01/25 23:27:40;;;;;;;57.30;28.17;;;0.20;99.90;;;;;;20672458;28;20870;-46
2023/01/25 23:37:41;;;;;;;48.92;25.05;;;0.20;99.90;;;;;;20666636;28;20468;-46
2023/01/25 23:47:42;;;;;;;54.22;25.83;;;0.20;99.90;;;;;;20655879;28;20054;-46
2023/01/25 23:57:43;;;;;;;53.15;26.50;;;0.30;99.90;;;;;;20671240;28;20049;-46
